Time;durP1;ratioP1;P1;durP2;ratioP2;P2;SDS_P1;SDS_P2;PMS_P1;PMS_P2;Temp;Humidity;BMP_temperature;BMP_pressure;BME280_temperature;BME280_humidity;BME280_pressure;Samples;Min_cycle;Max_cycle;Signal;HPM_P1;HPM_P2
2023/04/27 00:00:46;;;;;;;;;;;;;;;19.39;38.67;95671.03;10356044;28;2000;-60
2023/04/27 00:05:47;;;;;;;;;;;;;;;19.38;38.44;95676.56;10354355;28;2024;-60
2023/04/27 00:10:47;;;;;;;;;;;;;;;19.37;38.53;95670.50;10358256;28;2107;-61
2023/04/27 00:15:47;;;;;;;;;;;;;;;19.36;38.70;95671.56;10357987;28;2030;-61
2023/04/27 00:20:48;;;;;;;;;;;;;;;19.35;38.59;95669.97;10353787;28;1971;-60
2023/04/27 00:25:48;;;;;;;;;;;;;;;19.34;38.67;95668.44;10360339;28;5045;-60
2023/04/27 00:30:48;;;;;;;;;;;;;;;19.33;38.57;95661.56;10366427;28;1829;-60
2023/04/27 00:35:48;;;;;;;;;;;;;;;19.32;38.51;95657.38;10368269;28;1884;-60
2023/04/27 00:40:49;;;;;;;;;;;;;;;19.31;38.36;95661.03;10361577;28;1980;-61
2023/04/27 00:45:49;;;;;;;;;;;;;;;19.32;38.70;95660.00;10363952;28;1901;-61
2023/04/27 00:50:50;;;;;;;;;;;;;;;19.31;38.48;95655.78;10363989;28;1881;-60
2023/04/27 00:55:50;;;;;;;;;;;;;;;19.30;38.48;95656.03;10354568;28;1883;-60
2023/04/27 01:00:50;;;;;;;;;;;;;;;19.30;38.51;95658.69;10361456;28;2093;-61
2023/04/27 01:05:50;;;;;;;;;;;;;;;19.28;38.51;95658.94;10359072;28;1947;-60
2023/04/27 01:10:51;;;;;;;;;;;;;;;19.28;38.42;95660.78;10361698;28;1992;-61
2023/04/27 01:15:52;;;;;;;;;;;;;;;19.27;38.41;95661.81;10352639;28;1888;-60
2023/04/27 01:20:52;;;;;;;;;;;;;;;19.27;38.50;95667.88;10359407;28;1980;-60
2023/04/27 01:25:52;;;;;;;;;;;;;;;19.26;38.50;95655.00;10357070;28;5026;-60
2023/04/27 01:30:52;;;;;;;;;;;;;;;19.25;38.45;95651.59;10350371;28;2029;-60
2023/04/27 01:35:53;;;;;;;;;;;;;;;19.25;38.58;95659.47;10357672;28;2088;-60
2023/04/27 01:41:00;;;;;;;;;;;;;;;19.25;38.53;95659.47;10360837;28;2222;-60
2023/04/27 01:46:04;;;;;;;;;;;;;;;19.25;38.47;95661.31;10359463;28;2152;-60
2023/04/27 01:51:04;;;;;;;;;;;;;;;19.23;38.52;95669.47;10356797;28;1999;-60
2023/04/27 01:56:05;;;;;;;;;;;;;;;19.21;38.52;95673.41;10355680;28;2266;-60
2023/04/27 02:01:05;;;;;;;;;;;;;;;19.21;38.49;95679.47;10353635;28;2120;-60
2023/04/27 02:06:06;;;;;;;;;;;;;;;19.20;38.55;95667.38;10360424;28;1966;-60
2023/04/27 02:11:06;;;;;;;;;;;;;;;19.21;38.25;95678.66;10357461;28;2276;-60
2023/04/27 02:16:06;;;;;;;;;;;;;;;19.20;38.28;95677.91;10357125;28;2310;-60
2023/04/27 02:21:07;;;;;;;;;;;;;;;19.20;38.41;95687.63;10346095;28;1969;-60
2023/04/27 02:26:14;;;;;;;;;;;;;;;19.17;38.20;95681.03;10353962;28;4997;-60
2023/04/27 02:31:14;;;;;;;;;;;;;;;19.17;38.42;95686.28;10368311;28;2088;-59
2023/04/27 02:36:14;;;;;;;;;;;;;;;19.14;38.46;95681.59;10354096;28;2031;-60
2023/04/27 02:41:15;;;;;;;;;;;;;;;19.16;38.22;95684.75;10353046;28;2006;-60
2023/04/27 02:46:15;;;;;;;;;;;;;;;19.15;38.31;95680.53;10365850;28;1998;-60
2023/04/27 02:51:15;;;;;;;;;;;;;;;19.13;38.24;95682.63;10357289;28;2137;-60
2023/04/27 02:56:15;;;;;;;;;;;;;;;19.14;38.16;95689.47;10351460;28;2144;-60
2023/04/27 03:01:16;;;;;;;;;;;;;;;19.13;38.35;95693.13;10358372;28;2099;-58
2023/04/27 03:06:16;;;;;;;;;;;;;;;19.13;38.38;95682.63;10364354;28;1963;-59
2023/04/27 03:11:16;;;;;;;;;;;;;;;19.11;38.29;95689.97;10352824;28;2034;-59
2023/04/27 03:16:17;;;;;;;;;;;;;;;19.12;38.20;95688.94;10342556;28;2114;-59
2023/04/27 03:21:17;;;;;;;;;;;;;;;19.11;38.19;95687.34;10357931;28;1987;-59
2023/04/27 03:26:17;;;;;;;;;;;;;;;19.11;38.26;95695.25;10358210;28;5049;-58
2023/04/27 03:31:18;;;;;;;;;;;;;;;19.10;38.08;95695.50;10356283;28;1962;-59
2023/04/27 03:36:18;;;;;;;;;;;;;;;19.10;38.10;95698.13;10331410;28;2181;-59
2023/04/27 03:41:18;;;;;;;;;;;;;;;19.08;38.23;95701.00;10349448;28;1975;-59
2023/04/27 03:46:18;;;;;;;;;;;;;;;19.09;38.11;95712.31;10346656;28;2003;-59
2023/04/27 03:51:19;;;;;;;;;;;;;;;19.07;38.18;95704.72;10356385;28;2112;-59
2023/04/27 03:56:19;;;;;;;;;;;;;;;19.08;38.00;95710.75;10344716;28;1931;-59
2023/04/27 04:01:20;;;;;;;;;;;;;;;19.07;38.21;95709.97;10364780;28;2258;-60
2023/04/27 04:06:21;;;;;;;;;;;;;;;19.05;38.05;95717.31;10365261;28;1896;-59
2023/04/27 04:11:21;;;;;;;;;;;;;;;19.08;38.19;95727.28;10369294;28;1943;-59
2023/04/27 04:16:21;;;;;;;;;;;;;;;19.11;38.10;95726.78;10368868;28;2009;-59
2023/04/27 04:21:21;;;;;;;;;;;;;;;19.18;38.07;95735.19;10361657;28;1982;-59
2023/04/27 04:26:22;;;;;;;;;;;;;;;19.27;38.06;95740.66;10366729;28;5047;-59
2023/04/27 04:31:22;;;;;;;;;;;;;;;19.36;38.00;95749.63;10365913;28;1995;-59
2023/04/27 04:36:23;;;;;;;;;;;;;;;19.45;38.04;95748.81;10362889;28;1963;-59
2023/04/27 04:41:23;;;;;;;;;;;;;;;19.54;37.90;95754.31;10361700;28;2322;-59
2023/04/27 04:46:24;;;;;;;;;;;;;;;19.63;37.81;95754.56;10360983;28;2264;-59
2023/04/27 04:51:24;;;;;;;;;;;;;;;19.70;37.69;95755.09;10360249;28;1975;-59
2023/04/27 04:56:25;;;;;;;;;;;;;;;19.73;37.65;95757.97;10363132;28;2020;-59
2023/04/27 05:01:25;;;;;;;;;;;;;;;19.80;37.59;95760.31;10359385;28;1972;-59
2023/04/27 05:06:25;;;;;;;;;;;;;;;19.85;37.30;95761.06;10340283;28;2015;-59
2023/04/27 05:11:26;;;;;;;;;;;;;;;19.91;37.31;95762.63;10357715;28;2050;-59
2023/04/27 05:16:26;;;;;;;;;;;;;;;19.95;37.21;95770.78;10360291;28;2140;-59
2023/04/27 05:21:26;;;;;;;;;;;;;;;19.98;36.98;95762.34;10353625;28;1959;-58
2023/04/27 05:26:27;;;;;;;;;;;;;;;20.02;37.04;95769.44;10337436;28;5074;-59
2023/04/27 05:31:27;;;;;;;;;;;;;;;20.07;36.97;95761.50;10353104;28;1962;-59
2023/04/27 05:36:27;;;;;;;;;;;;;;;20.08;36.78;95762.31;10357215;28;2157;-59
2023/04/27 05:41:28;;;;;;;;;;;;;;;20.11;36.87;95767.81;10356424;28;2083;-59
2023/04/27 05:46:28;;;;;;;;;;;;;;;20.13;36.81;95786.75;10359842;28;1986;-59
2023/04/27 05:51:28;;;;;;;;;;;;;;;20.15;37.03;95797.03;10357956;28;1971;-59
2023/04/27 05:56:29;;;;;;;;;;;;;;;20.17;36.87;95793.03;10355589;28;2011;-59
2023/04/27 06:01:29;;;;;;;;;;;;;;;20.22;36.92;95787.00;10354655;28;2017;-58
2023/04/27 06:06:30;;;;;;;;;;;;;;;20.20;36.88;95786.50;10337396;28;1963;-59
2023/04/27 06:11:30;;;;;;;;;;;;;;;20.23;36.82;95789.41;10354066;28;1990;-58
2023/04/27 06:16:31;;;;;;;;;;;;;;;20.29;37.05;95784.88;10355606;28;2290;-59
2023/04/27 06:21:32;;;;;;;;;;;;;;;20.35;37.28;95788.28;10356201;28;1955;-60
2023/04/27 06:26:32;;;;;;;;;;;;;;;20.36;37.04;95795.13;10339380;28;5007;-60
2023/04/27 06:31:33;;;;;;;;;;;;;;;20.39;37.05;95790.09;10360599;28;2098;-59
2023/04/27 06:36:33;;;;;;;;;;;;;;;20.42;37.09;95799.31;10353259;28;2180;-60
2023/04/27 06:41:33;;;;;;;;;;;;;;;20.45;37.24;95804.03;10349047;28;2084;-59
2023/04/27 06:46:34;;;;;;;;;;;;;;;20.46;37.18;95797.72;10350802;28;2088;-60
2023/04/27 06:51:34;;;;;;;;;;;;;;;20.46;37.56;95798.50;10356732;28;2203;-59
2023/04/27 06:56:34;;;;;;;;;;;;;;;20.46;37.07;95803.78;10353638;28;1959;-60
2023/04/27 07:01:35;;;;;;;;;;;;;;;20.48;37.21;95801.66;10333786;28;2155;-59
2023/04/27 07:06:36;;;;;;;;;;;;;;;20.46;37.25;95800.34;10337040;28;2029;-59
2023/04/27 07:11:36;;;;;;;;;;;;;;;20.41;37.40;95803.78;10353646;28;2215;-59
2023/04/27 07:16:36;;;;;;;;;;;;;;;20.44;37.28;95813.78;10359899;28;1531;-59
2023/04/27 07:21:37;;;;;;;;;;;;;;;20.38;37.54;95812.22;10357158;28;1915;-59
2023/04/27 07:26:37;;;;;;;;;;;;;;;20.38;37.44;95811.44;10357375;28;5154;-59
2023/04/27 07:31:37;;;;;;;;;;;;;;;20.36;37.59;95808.28;10353719;28;2089;-59
2023/04/27 07:36:37;;;;;;;;;;;;;;;20.31;37.52;95808.31;10348765;28;1976;-59
2023/04/27 07:41:38;;;;;;;;;;;;;;;20.29;37.39;95811.22;10349831;28;1919;-58
2023/04/27 07:46:39;;;;;;;;;;;;;;;20.25;37.71;95799.66;10353711;28;1875;-58
2023/04/27 07:51:39;;;;;;;;;;;;;;;20.20;37.44;95802.28;10353077;28;2016;-59
2023/04/27 07:56:40;;;;;;;;;;;;;;;20.17;37.57;95797.53;10353599;28;1978;-58
2023/04/27 08:01:41;;;;;;;;;;;;;;;20.16;37.66;95817.00;10349910;28;2049;-59
2023/04/27 08:06:41;;;;;;;;;;;;;;;20.13;37.69;95820.19;10349929;28;1940;-61
2023/04/27 08:11:41;;;;;;;;;;;;;;;20.09;37.82;95821.78;10352803;28;1947;-62
2023/04/27 08:16:42;;;;;;;;;;;;;;;20.06;37.80;95817.84;10357408;28;1902;-62
2023/04/27 08:21:42;;;;;;;;;;;;;;;20.06;38.03;95827.56;10353750;28;1977;-62
2023/04/27 08:26:42;;;;;;;;;;;;;;;20.04;37.93;95827.06;10348768;28;1908;-61
2023/04/27 08:31:43;;;;;;;;;;;;;;;20.01;37.96;95828.38;10344452;28;2131;-61
2023/04/27 08:36:43;;;;;;;;;;;;;;;19.99;37.92;95832.34;10352277;28;1863;-61
2023/04/27 08:41:43;;;;;;;;;;;;;;;19.98;37.95;95828.13;10354503;28;1914;-61
2023/04/27 08:46:44;;;;;;;;;;;;;;;19.94;38.07;95825.25;10355598;28;2103;-61
2023/04/27 08:51:44;;;;;;;;;;;;;;;19.93;38.07;95820.22;10354494;28;2041;-61
2023/04/27 08:56:44;;;;;;;;;;;;;;;19.90;37.94;95818.94;10339814;28;1890;-61
2023/04/27 09:01:45;;;;;;;;;;;;;;;19.90;38.07;95820.78;10360365;28;2024;-61
2023/04/27 09:06:46;;;;;;;;;;;;;;;19.88;38.23;95809.75;10354632;28;1953;-60
2023/04/27 09:11:46;;;;;;;;;;;;;;;19.88;38.27;95813.16;10352685;28;2075;-61
2023/04/27 09:16:58;;;;;;;;;;;;;;;19.84;38.10;95804.22;10357377;28;1970;-61
2023/04/27 09:22:09;;;;;;;;;;;;;;;19.87;38.31;95808.16;10355861;28;2024;-62
2023/04/27 09:27:17;;;;;;;;;;;;;;;19.84;38.51;95803.44;10357134;28;4986;-60
2023/04/27 09:32:19;;;;;;;;;;;;;;;19.87;38.84;95795.00;10358620;28;1904;-62
2023/04/27 09:37:19;;;;;;;;;;;;;;;19.88;38.61;95799.22;10359296;28;1980;-61
2023/04/27 09:42:20;;;;;;;;;;;;;;;19.88;38.78;95793.97;10339650;28;1964;-61
2023/04/27 09:47:20;;;;;;;;;;;;;;;19.85;38.73;95789.22;10358916;28;2030;-61
2023/04/27 09:52:20;;;;;;;;;;;;;;;19.83;38.67;95800.00;10338062;28;1930;-61
2023/04/27 10:02:50;;;;;;;;;;;;;;;19.82;39.13;95781.88;11314867;23;1996;-58
2023/04/27 10:08:10;;;;;;;;;;;;;;;19.83;39.01;95780.81;10304907;28;3880;-58
2023/04/27 10:13:31;;;;;;;;;;;;;;;19.82;39.32;95776.63;10340274;28;8125;-58
2023/04/27 10:18:55;;;;;;;;;;;;;;;19.80;39.22;95763.75;10326852;28;8310;-58
2023/04/27 10:24:15;;;;;;;;;;;;;;;19.80;39.41;95761.09;10319660;28;4243;-59
2023/04/27 10:29:42;;;;;;;;;;;;;;;19.79;39.47;95758.72;10351124;28;2181;-58
2023/04/27 10:35:06;;;;;;;;;;;;;;;19.79;39.26;95764.78;10331589;28;8202;-58
2023/04/27 10:40:31;;;;;;;;;;;;;;;19.78;39.62;95757.16;10350516;28;8200;-58
2023/04/27 10:45:51;;;;;;;;;;;;;;;19.78;39.48;95755.34;10334833;28;2291;-57
2023/04/27 10:51:15;;;;;;;;;;;;;;;19.79;39.51;95753.47;10347318;28;5301;-56
2023/04/27 10:56:35;;;;;;;;;;;;;;;19.82;39.89;95753.75;10348711;28;1985;-58
2023/04/27 11:01:56;;;;;;;;;;;;;;;19.85;40.07;95744.50;10351015;28;2000;-59
2023/04/27 11:07:23;;;;;;;;;;;;;;;19.86;40.02;95746.09;10348639;28;8094;-58
2023/04/27 11:12:44;;;;;;;;;;;;;;;19.86;40.10;95757.41;10338777;28;1961;-58
2023/04/27 11:18:05;;;;;;;;;;;;;;;19.83;40.25;95750.03;10327987;28;1936;-58
2023/04/27 11:23:26;;;;;;;;;;;;;;;19.86;40.04;95753.97;10194029;28;11862;-58
2023/04/27 11:28:27;;;;;;;;;;;;;;;19.81;39.97;95753.97;10319596;28;2172;-58
2023/04/27 11:33:28;;;;;;;;;;;;;;;19.80;40.11;95750.59;10322821;28;1978;-58
2023/04/27 11:38:32;;;;;;;;;;;;;;;19.77;40.04;95747.69;10318513;28;1921;-58
2023/04/27 11:43:32;;;;;;;;;;;;;;;19.78;39.89;95765.06;10294218;28;8240;-58
2023/04/27 11:48:34;;;;;;;;;;;;;;;19.79;40.10;95761.34;10307274;28;2033;-58
2023/04/27 11:53:35;;;;;;;;;;;;;;;19.79;40.41;95761.34;10310180;28;1899;-58
2023/04/27 11:58:36;;;;;;;;;;;;;;;19.79;40.26;95769.25;10311817;28;2096;-58
2023/04/27 12:03:36;;;;;;;;;;;;;;;19.76;40.27;95775.06;10313305;28;1981;-58
2023/04/27 12:08:36;;;;;;;;;;;;;;;19.74;40.24;95766.66;10313255;28;2144;-57
2023/04/27 12:13:37;;;;;;;;;;;;;;;19.72;40.09;95771.38;10289296;28;1937;-58
2023/04/27 12:18:37;;;;;;;;;;;;;;;19.72;39.92;95764.25;10318994;28;2046;-58
2023/04/27 12:23:37;;;;;;;;;;;;;;;19.71;39.89;95767.97;10318660;28;1887;-59
2023/04/27 12:28:37;;;;;;;;;;;;;;;19.72;39.96;95766.13;10313712;28;2023;-58
2023/04/27 12:33:38;;;;;;;;;;;;;;;19.71;39.93;95767.97;10315919;28;1964;-58
2023/04/27 12:38:38;;;;;;;;;;;;;;;19.68;39.92;95760.59;10655245;23;3682;-59
2023/04/27 12:43:40;;;;;;;;;;;;;;;19.66;39.83;95760.06;10241698;28;5932;-59
2023/04/27 12:48:40;;;;;;;;;;;;;;;19.64;39.94;95758.78;10239973;28;1940;-58
2023/04/27 12:53:40;;;;;;;;;;;;;;;19.65;39.74;95763.78;10241420;28;1975;-59
2023/04/27 12:58:40;;;;;;;;;;;;;;;19.69;39.67;95753.50;10240076;28;1962;-58
2023/04/27 13:03:41;;;;;;;;;;;;;;;19.68;39.80;95744.81;10234457;28;2303;-58
2023/04/27 13:08:41;;;;;;;;;;;;;;;19.66;39.79;95748.78;10231906;28;1940;-59
2023/04/27 13:13:42;;;;;;;;;;;;;;;19.70;39.57;95747.97;10237152;28;2035;-58
2023/04/27 13:18:48;;;;;;;;;;;;;;;19.67;39.80;95747.72;10232151;28;1943;-58
2023/04/27 13:23:48;;;;;;;;;;;;;;;19.67;39.72;95748.50;10230895;28;2017;-58
2023/04/27 13:28:48;;;;;;;;;;;;;;;19.67;39.51;95745.88;10237836;28;2026;-58
2023/04/27 13:33:49;;;;;;;;;;;;;;;19.64;39.58;95745.63;10234575;28;1995;-59
2023/04/27 13:38:49;;;;;;;;;;;;;;;19.63;39.84;95739.59;10235727;28;2049;-59
2023/04/27 13:43:49;;;;;;;;;;;;;;;19.67;39.77;95737.19;10231888;28;5128;-58
2023/04/27 13:48:50;;;;;;;;;;;;;;;19.69;39.54;95729.84;10233492;28;1995;-57
2023/04/27 13:53:50;;;;;;;;;;;;;;;19.71;39.75;95730.34;10237699;28;1981;-58
2023/04/27 13:58:51;;;;;;;;;;;;;;;19.74;39.56;95724.56;10232027;28;2274;-59
2023/04/27 14:03:51;;;;;;;;;;;;;;;19.77;39.63;95719.56;10236392;28;1927;-58
2023/04/27 14:08:51;;;;;;;;;;;;;;;19.80;39.88;95715.59;10238194;28;1982;-58
2023/04/27 14:13:51;;;;;;;;;;;;;;;19.84;39.90;95714.81;10234706;28;1940;-58
2023/04/27 14:18:52;;;;;;;;;;;;;;;19.87;39.79;95713.44;10234104;28;1982;-59
2023/04/27 14:23:52;;;;;;;;;;;;;;;19.90;40.05;95708.47;10233755;28;1938;-59
2023/04/27 14:28:54;;;;;;;;;;;;;;;19.94;39.95;95708.69;10236838;28;1967;-58
2023/04/27 14:33:57;;;;;;;;;;;;;;;19.98;39.95;95710.53;10235132;28;2112;-59
2023/04/27 14:38:58;;;;;;;;;;;;;;;20.01;39.85;95715.22;10231795;28;1976;-59
2023/04/27 14:43:59;;;;;;;;;;;;;;;20.04;39.88;95711.28;10237583;28;5081;-58
2023/04/27 14:49:00;;;;;;;;;;;;;;;20.07;39.83;95708.88;10231637;28;1963;-58
2023/04/27 14:54:01;;;;;;;;;;;;;;;20.10;39.74;95715.47;10232214;28;2023;-60
2023/04/27 14:59:01;;;;;;;;;;;;;;;20.12;39.99;95710.72;10234567;28;1971;-58
2023/04/27 15:04:02;;;;;;;;;;;;;;;20.12;39.81;95705.44;10229752;28;1983;-57
2023/04/27 15:09:03;;;;;;;;;;;;;;;20.15;39.79;95712.81;10230221;28;1990;-57
2023/04/27 15:14:04;;;;;;;;;;;;;;;20.15;39.71;95713.56;10236569;28;1923;-60
2023/04/27 15:19:04;;;;;;;;;;;;;;;20.14;39.78;95714.66;10225526;28;1940;-59
2023/04/27 15:24:05;;;;;;;;;;;;;;;20.17;39.54;95710.69;10231092;28;1966;-60
2023/04/27 15:29:05;;;;;;;;;;;;;;;20.17;39.68;95702.81;10233672;28;2008;-58
2023/04/27 15:34:05;;;;;;;;;;;;;;;20.17;39.57;95694.91;10233278;28;2007;-60
2023/04/27 15:39:06;;;;;;;;;;;;;;;20.16;39.63;95699.38;10229158;28;2122;-61
2023/04/27 15:44:06;;;;;;;;;;;;;;;20.16;39.54;95688.84;10230806;28;5048;-57
2023/04/27 15:49:06;;;;;;;;;;;;;;;20.14;39.55;95695.44;10231155;28;2065;-60
2023/04/27 15:54:06;;;;;;;;;;;;;;;20.14;39.70;95692.81;10234243;28;2013;-59
2023/04/27 15:59:07;;;;;;;;;;;;;;;20.12;39.62;95702.81;10238459;28;1951;-58
2023/04/27 16:04:07;;;;;;;;;;;;;;;20.12;40.13;95705.44;10241585;28;2000;-60
2023/04/27 16:09:08;;;;;;;;;;;;;;;20.13;39.90;95707.03;10238495;28;2042;-60
2023/04/27 16:14:08;;;;;;;;;;;;;;;20.15;38.47;95695.16;10245103;28;2048;-61
2023/04/27 16:19:09;;;;;;;;;;;;;;;20.09;37.36;95684.94;10243058;28;1977;-60
2023/04/27 16:24:10;;;;;;;;;;;;;;;20.02;36.46;95697.59;10255350;28;1914;-61
2023/04/27 16:29:10;;;;;;;;;;;;;;;19.96;35.96;95688.16;10239821;28;2080;-62
2023/04/27 16:34:10;;;;;;;;;;;;;;;19.88;35.71;95696.63;10235897;28;1892;-60
2023/04/27 16:39:12;;;;;;;;;;;;;;;19.83;35.79;95696.63;10240199;28;2009;-62
2023/04/27 16:44:12;;;;;;;;;;;;;;;19.76;37.37;95688.25;10227598;28;5018;-61
2023/04/27 16:49:13;;;;;;;;;;;;;;;19.82;38.33;95679.28;10238395;28;1962;-61
2023/04/27 16:54:16;;;;;;;;;;;;;;;19.87;38.41;95692.41;10234093;28;1989;-59
2023/04/27 16:59:16;;;;;;;;;;;;;;;19.92;38.43;95687.13;10236998;28;1935;-61
2023/04/27 17:04:17;;;;;;;;;;;;;;;19.95;38.53;95676.06;10233720;28;1962;-61
2023/04/27 17:09:17;;;;;;;;;;;;;;;20.01;38.69;95686.28;10247957;28;1931;-60
2023/04/27 17:14:18;;;;;;;;;;;;;;;20.03;38.85;95676.28;10240356;28;1969;-60
2023/04/27 17:19:18;;;;;;;;;;;;;;;20.06;39.08;95685.47;10246031;28;2021;-60
2023/04/27 17:24:19;;;;;;;;;;;;;;;20.06;38.94;95685.47;10239206;28;2146;-61
2023/04/27 17:29:20;;;;;;;;;;;;;;;20.09;39.14;95679.69;10235993;28;1965;-61
2023/04/27 17:34:20;;;;;;;;;;;;;;;20.08;39.15;95672.84;10228043;28;1967;-60
2023/04/27 17:39:21;;;;;;;;;;;;;;;20.10;39.13;95673.34;10228516;28;2050;-60
2023/04/27 17:44:21;;;;;;;;;;;;;;;20.07;39.19;95679.94;10234014;28;4850;-60
2023/04/27 17:49:22;;;;;;;;;;;;;;;20.07;39.28;95684.44;10237944;28;2114;-61
2023/04/27 17:54:22;;;;;;;;;;;;;;;20.07;39.29;95681.81;10240827;28;1971;-60
2023/04/27 17:59:23;;;;;;;;;;;;;;;20.06;39.51;95685.47;10217234;28;1962;-61
2023/04/27 18:04:23;;;;;;;;;;;;;;;20.06;39.47;95685.47;10234453;28;2058;-61
2023/04/27 18:09:25;;;;;;;;;;;;;;;20.04;39.08;95683.13;10231476;28;1991;-59
2023/04/27 18:14:26;;;;;;;;;;;;;;;20.03;39.26;95688.66;10235811;28;1977;-59
2023/04/27 18:19:26;;;;;;;;;;;;;;;20.01;39.29;95696.06;10229960;28;2151;-60
2023/04/27 18:24:26;;;;;;;;;;;;;;;20.00;39.23;95700.50;10239323;28;2019;-62
2023/04/27 18:29:26;;;;;;;;;;;;;;;20.02;39.39;95690.50;10239895;28;1995;-62
2023/04/27 18:34:27;;;;;;;;;;;;;;;20.00;39.19;95697.88;10243588;28;1928;-62
2023/04/27 18:39:27;;;;;;;;;;;;;;;19.98;39.29;95696.56;10247445;28;1981;-62
2023/04/27 18:44:27;;;;;;;;;;;;;;;19.95;39.22;95703.16;10236678;28;4962;-62
2023/04/27 18:49:27;;;;;;;;;;;;;;;19.94;39.43;95708.69;10240058;28;2263;-62
2023/04/27 18:54:28;;;;;;;;;;;;;;;19.92;39.24;95713.44;10244274;28;1894;-62
2023/04/27 18:59:28;;;;;;;;;;;;;;;19.92;39.20;95721.34;10243345;28;1943;-62
2023/04/27 19:04:28;;;;;;;;;;;;;;;19.90;39.18;95716.34;10240771;28;2078;-62
2023/04/27 19:09:28;;;;;;;;;;;;;;;19.88;39.29;95715.84;10248905;28;1899;-62
2023/04/27 19:14:29;;;;;;;;;;;;;;;19.88;39.18;95728.19;10255940;28;2060;-62
2023/04/27 19:19:30;;;;;;;;;;;;;;;19.85;39.19;95723.47;10257645;28;1544;-62
2023/04/27 19:24:30;;;;;;;;;;;;;;;19.85;39.13;95731.34;10244240;28;1985;-62
2023/04/27 19:29:31;;;;;;;;;;;;;;;19.85;39.37;95731.34;10244255;28;1945;-62
2023/04/27 19:34:31;;;;;;;;;;;;;;;19.86;39.35;95722.41;10243530;28;1971;-61
2023/04/27 19:39:31;;;;;;;;;;;;;;;19.89;39.14;95716.59;10243576;28;1867;-62
2023/04/27 19:44:31;;;;;;;;;;;;;;;19.87;39.07;95719.50;10247404;28;5052;-62
2023/04/27 19:49:32;;;;;;;;;;;;;;;19.88;39.18;95725.56;10236938;28;1979;-62
2023/04/27 19:54:34;;;;;;;;;;;;;;;19.87;39.12;95721.34;10254115;28;1938;-62
2023/04/27 19:59:35;;;;;;;;;;;;;;;19.86;39.22;95722.41;10240409;28;1972;-62
2023/04/27 20:04:35;;;;;;;;;;;;;;;19.83;39.29;95730.84;10237019;28;1991;-61
2023/04/27 20:09:35;;;;;;;;;;;;;;;19.82;39.10;95727.44;10236311;28;2061;-61
2023/04/27 20:14:37;;;;;;;;;;;;;;;19.82;39.07;95731.91;10232909;28;1996;-62
2023/04/27 20:19:39;;;;;;;;;;;;;;;19.83;38.95;95733.47;10239025;28;2029;-62
2023/04/27 20:24:39;;;;;;;;;;;;;;;19.81;39.07;95725.84;10226695;28;2130;-61
2023/04/27 20:29:41;;;;;;;;;;;;;;;19.78;38.97;95721.13;10231894;28;2494;-61
2023/04/27 20:34:42;;;;;;;;;;;;;;;19.76;39.17;95711.94;10213161;28;2027;-62
2023/04/27 20:39:42;;;;;;;;;;;;;;;19.75;39.15;95715.59;10236619;28;5080;-62
2023/04/27 20:44:44;;;;;;;;;;;;;;;19.74;39.11;95712.19;10238268;28;2034;-61
2023/04/27 20:49:45;;;;;;;;;;;;;;;19.73;39.05;95712.47;10235845;28;1887;-61
2023/04/27 20:54:45;;;;;;;;;;;;;;;19.73;38.92;95704.56;10242991;28;2130;-62
2023/04/27 20:59:45;;;;;;;;;;;;;;;19.73;39.07;95707.19;10214141;28;1992;-62
2023/04/27 21:04:45;;;;;;;;;;;;;;;19.72;38.90;95703.00;10238439;28;1951;-62
2023/04/27 21:09:46;;;;;;;;;;;;;;;19.70;39.06;95700.63;10238498;28;2033;-62
2023/04/27 21:14:46;;;;;;;;;;;;;;;19.70;39.10;95699.88;10238645;28;1978;-62
2023/04/27 21:19:46;;;;;;;;;;;;;;;19.70;39.02;95707.75;10238339;28;1958;-61
2023/04/27 21:24:47;;;;;;;;;;;;;;;19.69;38.92;95695.66;10239092;28;1906;-62
2023/04/27 21:29:47;;;;;;;;;;;;;;;19.68;39.02;95694.09;10234467;28;1931;-62
2023/04/27 21:34:47;;;;;;;;;;;;;;;19.67;39.08;95690.66;10240818;28;2012;-61
2023/04/27 21:39:47;;;;;;;;;;;;;;;19.66;38.90;95694.34;10236539;28;5205;-61
2023/04/27 21:44:48;;;;;;;;;;;;;;;19.65;38.96;95673.56;10236911;28;1972;-62
2023/04/27 21:49:48;;;;;;;;;;;;;;;19.65;39.05;95679.63;10227218;28;2022;-62
2023/04/27 21:54:48;;;;;;;;;;;;;;;19.64;39.02;95667.50;10236347;28;1967;-61
2023/04/27 21:59:48;;;;;;;;;;;;;;;19.65;38.83;95670.94;10238429;28;1947;-62
2023/04/27 22:04:50;;;;;;;;;;;;;;;19.63;39.07;95675.69;10239241;28;2068;-62
2023/04/27 22:09:50;;;;;;;;;;;;;;;19.63;38.97;95670.44;10235047;28;2046;-61
2023/04/27 22:14:50;;;;;;;;;;;;;;;19.61;39.01;95665.44;10235867;28;1932;-62
2023/04/27 22:19:50;;;;;;;;;;;;;;;19.60;38.96;95660.47;10230019;28;1931;-62
2023/04/27 22:24:51;;;;;;;;;;;;;;;19.60;38.86;95678.88;10236459;28;1923;-61
2023/04/27 22:29:51;;;;;;;;;;;;;;;19.59;38.97;95672.81;10237217;28;1928;-62
2023/04/27 22:34:51;;;;;;;;;;;;;;;19.58;38.95;95670.47;10229747;28;2119;-61
2023/04/27 22:39:51;;;;;;;;;;;;;;;19.58;39.05;95667.84;10234347;28;5092;-60
2023/04/27 22:44:52;;;;;;;;;;;;;;;19.57;38.98;95666.25;10236946;28;1944;-61
2023/04/27 22:49:53;;;;;;;;;;;;;;;19.55;39.04;95669.16;10228604;28;1959;-62
2023/04/27 22:54:53;;;;;;;;;;;;;;;19.55;39.02;95658.63;10233822;28;2008;-61
2023/04/27 22:59:53;;;;;;;;;;;;;;;19.55;39.04;95650.75;10232696;28;2021;-63
2023/04/27 23:04:54;;;;;;;;;;;;;;;19.54;39.03;95646.53;10235323;28;2042;-62
2023/04/27 23:10:01;;;;;;;;;;;;;;;19.53;39.08;95644.97;10233322;28;1974;-62
2023/04/27 23:15:01;;;;;;;;;;;;;;;19.52;38.90;95637.31;10237661;28;1966;-62
2023/04/27 23:20:06;;;;;;;;;;;;;;;19.51;39.02;95649.72;10231932;28;2017;-62
2023/04/27 23:25:07;;;;;;;;;;;;;;;19.51;38.96;95641.03;10231236;28;1960;-62
2023/04/27 23:30:08;;;;;;;;;;;;;;;19.51;38.95;95630.50;10239102;28;2000;-62
2023/04/27 23:35:08;;;;;;;;;;;;;;;19.50;39.06;95627.09;10229922;28;2104;-63
2023/04/27 23:40:09;;;;;;;;;;;;;;;19.49;39.03;95621.03;10234788;28;5049;-62
2023/04/27 23:45:09;;;;;;;;;;;;;;;19.47;39.01;95628.41;10230595;28;2058;-62
2023/04/27 23:50:09;;;;;;;;;;;;;;;19.47;38.97;95625.00;10225336;28;2099;-62
2023/04/27 23:55:10;;;;;;;;;;;;;;;19.46;39.04;95618.16;10230066;28;2206;-62
